sensor_id;sensor_type;location;lat;lon;timestamp;temperature;humidity
21823;DHT22;11074;48.596;9.238;2023-07-13T00:00:35;23.10;99.90
21823;DHT22;11074;48.596;9.238;2023-07-13T00:03:03;23.10;99.90
21823;DHT22;11074;48.596;9.238;2023-07-13T00:05:29;23.00;99.90
21823;DHT22;11074;48.596;9.238;2023-07-13T00:07:56;23.00;99.90
21823;DHT22;11074;48.596;9.238;2023-07-13T00:10:22;23.00;99.90
21823;DHT22;11074;48.596;9.238;2023-07-13T00:12:48;22.90;99.90
21823;DHT22;11074;48.596;9.238;2023-07-13T00:15:18;22.80;99.90
21823;DHT22;11074;48.596;9.238;2023-07-13T00:17:49;22.90;99.90
21823;DHT22;11074;48.596;9.238;2023-07-13T00:20:21;22.80;99.90
21823;DHT22;11074;48.596;9.238;2023-07-13T00:22:50;22.80;99.90
21823;DHT22;11074;48.596;9.238;2023-07-13T00:25:19;22.80;99.90
21823;DHT22;11074;48.596;9.238;2023-07-13T00:27:47;22.80;99.90
21823;DHT22;11074;48.596;9.238;2023-07-13T00:30:17;22.70;99.90
21823;DHT22;11074;48.596;9.238;2023-07-13T00:32:43;22.70;99.90
21823;DHT22;11074;48.596;9.238;2023-07-13T00:35:09;22.50;99.90
21823;DHT22;11074;48.596;9.238;2023-07-13T00:37:35;22.40;99.90
21823;DHT22;11074;48.596;9.238;2023-07-13T00:40:03;22.30;99.90
21823;DHT22;11074;48.596;9.238;2023-07-13T00:42:30;22.30;99.90
21823;DHT22;11074;48.596;9.238;2023-07-13T00:45:07;22.20;99.90
21823;DHT22;11074;48.596;9.238;2023-07-13T00:47:39;22.10;99.90
21823;DHT22;11074;48.596;9.238;2023-07-13T00:50:09;21.90;99.90
21823;DHT22;11074;48.596;9.238;2023-07-13T00:52:42;21.90;99.90
21823;DHT22;11074;48.596;9.238;2023-07-13T00:55:11;21.80;99.90
21823;DHT22;11074;48.596;9.238;2023-07-13T00:57:39;21.70;99.90
21823;DHT22;11074;48.596;9.238;2023-07-13T01:00:06;21.80;99.90
21823;DHT22;11074;48.596;9.238;2023-07-13T01:02:38;21.80;99.90
21823;DHT22;11074;48.596;9.238;2023-07-13T01:05:16;21.90;99.90
21823;DHT22;11074;48.596;9.238;2023-07-13T01:07:44;21.90;99.90
21823;DHT22;11074;48.596;9.238;2023-07-13T01:10:12;21.80;99.90
21823;DHT22;11074;48.596;9.238;2023-07-13T01:12:38;21.90;99.90
21823;DHT22;11074;48.596;9.238;2023-07-13T01:15:05;21.90;99.90
21823;DHT22;11074;48.596;9.238;2023-07-13T01:17:33;21.80;99.90
21823;DHT22;11074;48.596;9.238;2023-07-13T01:20:00;21.70;99.90
21823;DHT22;11074;48.596;9.238;2023-07-13T01:22:26;21.70;99.90
21823;DHT22;11074;48.596;9.238;2023-07-13T01:24:53;21.60;99.90
21823;DHT22;11074;48.596;9.238;2023-07-13T01:27:25;21.60;99.90
21823;DHT22;11074;48.596;9.238;2023-07-13T01:29:52;21.40;99.90
21823;DHT22;11074;48.596;9.238;2023-07-13T01:32:24;21.40;99.90
21823;DHT22;11074;48.596;9.238;2023-07-13T01:34:51;21.30;99.90
21823;DHT22;11074;48.596;9.238;2023-07-13T01:37:20;21.40;99.90
21823;DHT22;11074;48.596;9.238;2023-07-13T01:39:46;21.40;99.90
21823;DHT22;11074;48.596;9.238;2023-07-13T01:42:13;21.60;99.90
21823;DHT22;11074;48.596;9.238;2023-07-13T01:44:38;21.60;99.90
21823;DHT22;11074;48.596;9.238;2023-07-13T01:47:04;21.60;99.90
21823;DHT22;11074;48.596;9.238;2023-07-13T01:49:30;21.60;99.90
21823;DHT22;11074;48.596;9.238;2023-07-13T01:51:56;21.60;99.90
21823;DHT22;11074;48.596;9.238;2023-07-13T01:54:22;21.60;99.90
21823;DHT22;11074;48.596;9.238;2023-07-13T01:56:48;21.50;99.90
21823;DHT22;11074;48.596;9.238;2023-07-13T01:59:14;21.50;99.90
21823;DHT22;11074;48.596;9.238;2023-07-13T02:01:39;21.40;99.90
21823;DHT22;11074;48.596;9.238;2023-07-13T02:04:05;21.30;99.90
21823;DHT22;11074;48.596;9.238;2023-07-13T02:06:31;21.20;99.90
21823;DHT22;11074;48.596;9.238;2023-07-13T02:08:57;21.20;99.90
21823;DHT22;11074;48.596;9.238;2023-07-13T02:11:24;21.20;99.90
21823;DHT22;11074;48.596;9.238;2023-07-13T02:13:50;21.10;99.90
21823;DHT22;11074;48.596;9.238;2023-07-13T02:16:17;21.00;99.90
21823;DHT22;11074;48.596;9.238;2023-07-13T02:18:42;21.00;99.90
21823;DHT22;11074;48.596;9.238;2023-07-13T02:21:08;21.10;99.90
21823;DHT22;11074;48.596;9.238;2023-07-13T02:23:34;21.20;99.90
21823;DHT22;11074;48.596;9.238;2023-07-13T02:26:01;21.20;99.90
21823;DHT22;11074;48.596;9.238;2023-07-13T02:28:30;21.10;99.90
21823;DHT22;11074;48.596;9.238;2023-07-13T02:31:03;21.10;99.90
21823;DHT22;11074;48.596;9.238;2023-07-13T02:33:29;21.00;99.90
21823;DHT22;11074;48.596;9.238;2023-07-13T02:35:55;21.00;99.90
21823;DHT22;11074;48.596;9.238;2023-07-13T02:38:21;21.00;99.90
21823;DHT22;11074;48.596;9.238;2023-07-13T02:40:46;21.10;99.90
21823;DHT22;11074;48.596;9.238;2023-07-13T02:43:12;21.10;99.90
21823;DHT22;11074;48.596;9.238;2023-07-13T02:45:38;21.10;99.90
21823;DHT22;11074;48.596;9.238;2023-07-13T02:48:04;21.00;99.90
21823;DHT22;11074;48.596;9.238;2023-07-13T02:50:30;20.90;99.90
21823;DHT22;11074;48.596;9.238;2023-07-13T02:52:56;20.90;99.90
21823;DHT22;11074;48.596;9.238;2023-07-13T02:55:21;20.90;99.90
21823;DHT22;11074;48.596;9.238;2023-07-13T02:57:47;21.00;99.90
21823;DHT22;11074;48.596;9.238;2023-07-13T03:00:13;21.00;99.90
21823;DHT22;11074;48.596;9.238;2023-07-13T03:02:38;21.00;99.90
21823;DHT22;11074;48.596;9.238;2023-07-13T03:05:04;20.90;99.90
21823;DHT22;11074;48.596;9.238;2023-07-13T03:07:30;20.70;99.90
21823;DHT22;11074;48.596;9.238;2023-07-13T03:09:56;20.70;99.90
21823;DHT22;11074;48.596;9.238;2023-07-13T03:12:23;20.70;99.90
21823;DHT22;11074;48.596;9.238;2023-07-13T03:14:49;20.70;99.90
21823;DHT22;11074;48.596;9.238;2023-07-13T03:17:14;20.70;99.90
21823;DHT22;11074;48.596;9.238;2023-07-13T03:19:40;20.60;99.90
21823;DHT22;11074;48.596;9.238;2023-07-13T03:22:06;20.50;99.90
21823;DHT22;11074;48.596;9.238;2023-07-13T03:24:33;20.40;99.90
21823;DHT22;11074;48.596;9.238;2023-07-13T03:27:00;20.30;99.90
21823;DHT22;11074;48.596;9.238;2023-07-13T03:29:27;20.30;99.90
21823;DHT22;11074;48.596;9.238;2023-07-13T03:31:53;20.30;99.90
21823;DHT22;11074;48.596;9.238;2023-07-13T03:34:18;20.30;99.90
21823;DHT22;11074;48.596;9.238;2023-07-13T03:36:44;20.30;99.90
21823;DHT22;11074;48.596;9.238;2023-07-13T03:39:10;20.30;99.90
21823;DHT22;11074;48.596;9.238;2023-07-13T03:41:36;20.30;99.90
21823;DHT22;11074;48.596;9.238;2023-07-13T03:44:02;20.30;99.90
21823;DHT22;11074;48.596;9.238;2023-07-13T03:46:28;20.30;99.90
21823;DHT22;11074;48.596;9.238;2023-07-13T03:48:53;20.40;99.90
21823;DHT22;11074;48.596;9.238;2023-07-13T03:51:19;20.40;99.90
21823;DHT22;11074;48.596;9.238;2023-07-13T03:53:47;20.50;99.90
21823;DHT22;11074;48.596;9.238;2023-07-13T03:56:14;20.50;99.90
21823;DHT22;11074;48.596;9.238;2023-07-13T03:58:44;20.40;99.90
21823;DHT22;11074;48.596;9.238;2023-07-13T04:01:13;20.40;99.90
21823;DHT22;11074;48.596;9.238;2023-07-13T04:03:41;20.30;99.90
21823;DHT22;11074;48.596;9.238;2023-07-13T04:06:17;20.30;99.90
21823;DHT22;11074;48.596;9.238;2023-07-13T04:08:51;20.30;99.90
21823;DHT22;11074;48.596;9.238;2023-07-13T04:11:19;20.40;99.90
21823;DHT22;11074;48.596;9.238;2023-07-13T04:13:47;20.40;99.90
21823;DHT22;11074;48.596;9.238;2023-07-13T04:16:14;20.50;99.90
21823;DHT22;11074;48.596;9.238;2023-07-13T04:18:41;20.50;99.90
21823;DHT22;11074;48.596;9.238;2023-07-13T04:21:08;20.50;99.90
21823;DHT22;11074;48.596;9.238;2023-07-13T04:23:35;20.50;99.90
21823;DHT22;11074;48.596;9.238;2023-07-13T04:26:01;20.50;99.90
21823;DHT22;11074;48.596;9.238;2023-07-13T04:28:27;20.50;99.90
21823;DHT22;11074;48.596;9.238;2023-07-13T04:30:54;20.40;99.90
21823;DHT22;11074;48.596;9.238;2023-07-13T04:33:21;20.40;99.90
21823;DHT22;11074;48.596;9.238;2023-07-13T04:35:49;20.40;99.90
21823;DHT22;11074;48.596;9.238;2023-07-13T04:38:25;20.40;99.90
21823;DHT22;11074;48.596;9.238;2023-07-13T04:40:58;20.40;99.90
21823;DHT22;11074;48.596;9.238;2023-07-13T04:43:29;20.50;99.90
21823;DHT22;11074;48.596;9.238;2023-07-13T04:45:56;20.50;99.90
21823;DHT22;11074;48.596;9.238;2023-07-13T04:48:23;20.50;99.90
21823;DHT22;11074;48.596;9.238;2023-07-13T04:50:55;20.50;99.90
21823;DHT22;11074;48.596;9.238;2023-07-13T04:53:22;20.50;99.90
21823;DHT22;11074;48.596;9.238;2023-07-13T04:55:48;20.50;99.90
21823;DHT22;11074;48.596;9.238;2023-07-13T04:58:14;20.50;99.90
21823;DHT22;11074;48.596;9.238;2023-07-13T05:00:39;20.50;99.90
21823;DHT22;11074;48.596;9.238;2023-07-13T05:03:06;20.50;99.90
21823;DHT22;11074;48.596;9.238;2023-07-13T05:05:31;20.50;99.90
21823;DHT22;11074;48.596;9.238;2023-07-13T05:07:58;20.40;99.90
21823;DHT22;11074;48.596;9.238;2023-07-13T05:10:23;20.40;99.90
21823;DHT22;11074;48.596;9.238;2023-07-13T05:12:49;20.50;99.90
21823;DHT22;11074;48.596;9.238;2023-07-13T05:15:20;20.50;99.90
21823;DHT22;11074;48.596;9.238;2023-07-13T05:17:48;20.60;99.90
21823;DHT22;11074;48.596;9.238;2023-07-13T05:20:15;20.70;99.90
21823;DHT22;11074;48.596;9.238;2023-07-13T05:22:43;20.70;99.90
21823;DHT22;11074;48.596;9.238;2023-07-13T05:25:09;20.60;99.90
21823;DHT22;11074;48.596;9.238;2023-07-13T05:27:35;20.60;99.90
21823;DHT22;11074;48.596;9.238;2023-07-13T05:30:02;20.60;99.90
21823;DHT22;11074;48.596;9.238;2023-07-13T05:32:29;20.70;99.90
21823;DHT22;11074;48.596;9.238;2023-07-13T05:34:55;20.70;99.90
21823;DHT22;11074;48.596;9.238;2023-07-13T05:37:21;20.80;99.90
21823;DHT22;11074;48.596;9.238;2023-07-13T05:39:46;20.80;99.90
21823;DHT22;11074;48.596;9.238;2023-07-13T05:42:12;20.90;99.90
21823;DHT22;11074;48.596;9.238;2023-07-13T05:44:38;20.90;99.90
21823;DHT22;11074;48.596;9.238;2023-07-13T05:47:03;20.90;99.90
21823;DHT22;11074;48.596;9.238;2023-07-13T05:49:29;20.90;99.90
21823;DHT22;11074;48.596;9.238;2023-07-13T05:51:56;20.90;99.90
21823;DHT22;11074;48.596;9.238;2023-07-13T05:54:22;20.90;99.90
21823;DHT22;11074;48.596;9.238;2023-07-13T05:56:48;20.80;99.90
21823;DHT22;11074;48.596;9.238;2023-07-13T05:59:13;20.80;99.90
21823;DHT22;11074;48.596;9.238;2023-07-13T06:01:39;20.90;99.90
21823;DHT22;11074;48.596;9.238;2023-07-13T06:04:05;20.90;99.90
21823;DHT22;11074;48.596;9.238;2023-07-13T06:06:30;20.90;99.90
21823;DHT22;11074;48.596;9.238;2023-07-13T06:08:56;20.90;99.90
21823;DHT22;11074;48.596;9.238;2023-07-13T06:11:26;20.90;99.90
21823;DHT22;11074;48.596;9.238;2023-07-13T06:13:53;21.00;99.90
21823;DHT22;11074;48.596;9.238;2023-07-13T06:16:19;21.00;99.90
21823;DHT22;11074;48.596;9.238;2023-07-13T06:18:45;21.00;99.90
21823;DHT22;11074;48.596;9.238;2023-07-13T06:21:18;21.10;99.90
21823;DHT22;11074;48.596;9.238;2023-07-13T06:23:47;21.10;99.90
21823;DHT22;11074;48.596;9.238;2023-07-13T06:26:14;21.20;99.90
21823;DHT22;11074;48.596;9.238;2023-07-13T06:28:40;21.20;99.90
21823;DHT22;11074;48.596;9.238;2023-07-13T06:31:07;21.30;99.90
21823;DHT22;11074;48.596;9.238;2023-07-13T06:33:35;21.30;99.90
21823;DHT22;11074;48.596;9.238;2023-07-13T06:36:02;21.30;99.90
21823;DHT22;11074;48.596;9.238;2023-07-13T06:38:33;21.40;99.90
21823;DHT22;11074;48.596;9.238;2023-07-13T06:40:59;21.40;99.90
21823;DHT22;11074;48.596;9.238;2023-07-13T06:43:25;21.40;99.90
21823;DHT22;11074;48.596;9.238;2023-07-13T06:45:51;21.50;99.90
21823;DHT22;11074;48.596;9.238;2023-07-13T06:48:20;21.50;99.90
21823;DHT22;11074;48.596;9.238;2023-07-13T06:50:48;21.60;99.90
21823;DHT22;11074;48.596;9.238;2023-07-13T06:53:15;21.60;99.90
21823;DHT22;11074;48.596;9.238;2023-07-13T06:55:43;21.60;99.90
21823;DHT22;11074;48.596;9.238;2023-07-13T06:58:10;21.50;99.90
21823;DHT22;11074;48.596;9.238;2023-07-13T07:00:36;21.50;99.90
21823;DHT22;11074;48.596;9.238;2023-07-13T07:03:02;21.50;99.90
21823;DHT22;11074;48.596;9.238;2023-07-13T07:05:27;21.50;99.90
21823;DHT22;11074;48.596;9.238;2023-07-13T07:07:55;21.50;99.90
21823;DHT22;11074;48.596;9.238;2023-07-13T07:10:21;21.50;99.90
21823;DHT22;11074;48.596;9.238;2023-07-13T07:12:47;21.60;99.90
21823;DHT22;11074;48.596;9.238;2023-07-13T07:15:14;21.60;99.90
21823;DHT22;11074;48.596;9.238;2023-07-13T07:17:40;21.70;99.90
21823;DHT22;11074;48.596;9.238;2023-07-13T07:20:06;21.60;99.90
21823;DHT22;11074;48.596;9.238;2023-07-13T07:22:33;21.70;99.90
21823;DHT22;11074;48.596;9.238;2023-07-13T07:24:59;21.70;99.90
21823;DHT22;11074;48.596;9.238;2023-07-13T07:27:25;21.70;99.90
21823;DHT22;11074;48.596;9.238;2023-07-13T07:29:51;21.80;99.90
21823;DHT22;11074;48.596;9.238;2023-07-13T07:32:16;21.80;99.90
21823;DHT22;11074;48.596;9.238;2023-07-13T07:34:44;21.80;99.90
21823;DHT22;11074;48.596;9.238;2023-07-13T07:37:12;21.80;99.90
21823;DHT22;11074;48.596;9.238;2023-07-13T07:39:39;21.90;99.90
21823;DHT22;11074;48.596;9.238;2023-07-13T07:42:05;21.90;99.90
21823;DHT22;11074;48.596;9.238;2023-07-13T07:44:32;21.90;99.90
21823;DHT22;11074;48.596;9.238;2023-07-13T07:46:58;22.00;99.90
21823;DHT22;11074;48.596;9.238;2023-07-13T07:49:24;21.90;99.90
21823;DHT22;11074;48.596;9.238;2023-07-13T07:51:50;22.00;99.90
21823;DHT22;11074;48.596;9.238;2023-07-13T07:54:16;22.00;99.90
21823;DHT22;11074;48.596;9.238;2023-07-13T07:56:42;22.00;99.90
21823;DHT22;11074;48.596;9.238;2023-07-13T07:59:08;22.00;99.90
21823;DHT22;11074;48.596;9.238;2023-07-13T08:01:35;22.00;99.90
21823;DHT22;11074;48.596;9.238;2023-07-13T08:04:01;21.90;99.90
21823;DHT22;11074;48.596;9.238;2023-07-13T08:06:27;22.00;99.90
21823;DHT22;11074;48.596;9.238;2023-07-13T08:08:53;22.00;99.90
21823;DHT22;11074;48.596;9.238;2023-07-13T08:11:20;22.00;99.90
21823;DHT22;11074;48.596;9.238;2023-07-13T08:13:47;22.10;99.90
21823;DHT22;11074;48.596;9.238;2023-07-13T08:16:13;22.10;99.90
21823;DHT22;11074;48.596;9.238;2023-07-13T08:18:38;22.10;99.90
21823;DHT22;11074;48.596;9.238;2023-07-13T08:21:06;22.10;99.90
21823;DHT22;11074;48.596;9.238;2023-07-13T08:23:33;22.10;99.90
21823;DHT22;11074;48.596;9.238;2023-07-13T08:25:59;22.20;99.90
21823;DHT22;11074;48.596;9.238;2023-07-13T08:28:27;22.20;99.90
21823;DHT22;11074;48.596;9.238;2023-07-13T08:30:53;22.20;99.90
21823;DHT22;11074;48.596;9.238;2023-07-13T08:33:20;22.30;99.90
21823;DHT22;11074;48.596;9.238;2023-07-13T08:35:49;22.30;99.90
21823;DHT22;11074;48.596;9.238;2023-07-13T08:38:16;22.30;99.90
21823;DHT22;11074;48.596;9.238;2023-07-13T08:40:43;22.40;99.90
21823;DHT22;11074;48.596;9.238;2023-07-13T08:43:16;22.30;99.90
21823;DHT22;11074;48.596;9.238;2023-07-13T08:48:52;22.40;99.90
21823;DHT22;11074;48.596;9.238;2023-07-13T08:51:32;22.40;99.90
21823;DHT22;11074;48.596;9.238;2023-07-13T08:54:04;22.40;99.90
21823;DHT22;11074;48.596;9.238;2023-07-13T08:56:37;22.50;99.90
21823;DHT22;11074;48.596;9.238;2023-07-13T08:59:13;22.50;99.90
21823;DHT22;11074;48.596;9.238;2023-07-13T09:04:42;22.70;99.90
21823;DHT22;11074;48.596;9.238;2023-07-13T09:09:52;22.70;99.90
21823;DHT22;11074;48.596;9.238;2023-07-13T09:15:06;22.70;99.90
21823;DHT22;11074;48.596;9.238;2023-07-13T09:17:50;22.80;99.90
21823;DHT22;11074;48.596;9.238;2023-07-13T09:20:24;22.80;99.90
21823;DHT22;11074;48.596;9.238;2023-07-13T09:22:55;22.80;99.90
21823;DHT22;11074;48.596;9.238;2023-07-13T09:25:32;22.90;99.90
21823;DHT22;11074;48.596;9.238;2023-07-13T09:28:16;23.00;99.90
21823;DHT22;11074;48.596;9.238;2023-07-13T09:30:52;23.10;99.90
21823;DHT22;11074;48.596;9.238;2023-07-13T09:33:22;23.10;99.90
21823;DHT22;11074;48.596;9.238;2023-07-13T09:35:48;23.30;99.90
21823;DHT22;11074;48.596;9.238;2023-07-13T09:38:17;23.30;99.90
21823;DHT22;11074;48.596;9.238;2023-07-13T09:40:58;23.40;99.90
21823;DHT22;11074;48.596;9.238;2023-07-13T09:43:29;23.40;99.90
21823;DHT22;11074;48.596;9.238;2023-07-13T09:45:55;23.30;99.90
21823;DHT22;11074;48.596;9.238;2023-07-13T09:48:21;23.20;99.90
21823;DHT22;11074;48.596;9.238;2023-07-13T09:50:47;23.30;99.90
21823;DHT22;11074;48.596;9.238;2023-07-13T09:53:15;23.30;99.90
21823;DHT22;11074;48.596;9.238;2023-07-13T09:55:45;23.30;99.90
21823;DHT22;11074;48.596;9.238;2023-07-13T09:58:20;23.40;99.90
21823;DHT22;11074;48.596;9.238;2023-07-13T10:00:56;23.50;99.90
21823;DHT22;11074;48.596;9.238;2023-07-13T10:03:34;23.70;99.90
21823;DHT22;11074;48.596;9.238;2023-07-13T10:06:14;23.70;99.90
21823;DHT22;11074;48.596;9.238;2023-07-13T10:08:46;23.80;99.90
21823;DHT22;11074;48.596;9.238;2023-07-13T10:11:26;23.80;99.90
21823;DHT22;11074;48.596;9.238;2023-07-13T10:14:02;23.80;99.90
21823;DHT22;11074;48.596;9.238;2023-07-13T10:16:35;23.90;99.90
21823;DHT22;11074;48.596;9.238;2023-07-13T10:19:06;23.90;99.90
21823;DHT22;11074;48.596;9.238;2023-07-13T10:21:55;24.00;99.90
21823;DHT22;11074;48.596;9.238;2023-07-13T10:24:26;24.00;99.90
21823;DHT22;11074;48.596;9.238;2023-07-13T10:29:46;24.30;99.90
21823;DHT22;11074;48.596;9.238;2023-07-13T10:32:15;24.50;99.90
21823;DHT22;11074;48.596;9.238;2023-07-13T10:34:45;24.60;99.90
21823;DHT22;11074;48.596;9.238;2023-07-13T10:37:20;24.70;99.90
21823;DHT22;11074;48.596;9.238;2023-07-13T10:39:50;24.80;99.90
21823;DHT22;11074;48.596;9.238;2023-07-13T10:42:27;25.00;99.90
21823;DHT22;11074;48.596;9.238;2023-07-13T10:44:55;25.10;99.90
21823;DHT22;11074;48.596;9.238;2023-07-13T10:47:22;25.20;99.90
21823;DHT22;11074;48.596;9.238;2023-07-13T10:49:52;25.20;99.90
21823;DHT22;11074;48.596;9.238;2023-07-13T10:52:41;25.30;99.90
21823;DHT22;11074;48.596;9.238;2023-07-13T10:58:29;25.10;99.90
21823;DHT22;11074;48.596;9.238;2023-07-13T11:01:08;25.00;99.90
21823;DHT22;11074;48.596;9.238;2023-07-13T11:03:54;25.00;99.90
21823;DHT22;11074;48.596;9.238;2023-07-13T11:09:49;24.80;99.90
21823;DHT22;11074;48.596;9.238;2023-07-13T11:12:02;24.80;99.90
21823;DHT22;11074;48.596;9.238;2023-07-13T11:14:42;24.80;99.90
21823;DHT22;11074;48.596;9.238;2023-07-13T11:17:33;24.90;99.90
21823;DHT22;11074;48.596;9.238;2023-07-13T11:25:37;24.80;99.90
21823;DHT22;11074;48.596;9.238;2023-07-13T11:36:17;24.50;99.90
21823;DHT22;11074;48.596;9.238;2023-07-13T11:38:58;24.90;99.90
21823;DHT22;11074;48.596;9.238;2023-07-13T11:41:43;25.50;99.90
21823;DHT22;11074;48.596;9.238;2023-07-13T11:44:18;26.00;99.90
21823;DHT22;11074;48.596;9.238;2023-07-13T11:46:48;26.40;99.90
21823;DHT22;11074;48.596;9.238;2023-07-13T11:49:21;26.60;99.90
21823;DHT22;11074;48.596;9.238;2023-07-13T11:51:51;26.80;99.90
21823;DHT22;11074;48.596;9.238;2023-07-13T11:54:29;27.00;99.90
21823;DHT22;11074;48.596;9.238;2023-07-13T11:57:00;27.20;99.90
21823;DHT22;11074;48.596;9.238;2023-07-13T11:59:32;27.20;99.90
21823;DHT22;11074;48.596;9.238;2023-07-13T12:02:08;27.30;99.90
21823;DHT22;11074;48.596;9.238;2023-07-13T12:04:43;27.40;99.00
21823;DHT22;11074;48.596;9.238;2023-07-13T12:07:16;27.40;98.80
21823;DHT22;11074;48.596;9.238;2023-07-13T12:09:44;27.50;98.70
21823;DHT22;11074;48.596;9.238;2023-07-13T12:12:17;27.70;98.70
21823;DHT22;11074;48.596;9.238;2023-07-13T12:14:44;27.60;98.00
21823;DHT22;11074;48.596;9.238;2023-07-13T12:17:18;27.20;98.60
21823;DHT22;11074;48.596;9.238;2023-07-13T12:19:47;26.90;99.10
21823;DHT22;11074;48.596;9.238;2023-07-13T12:22:15;26.90;98.40
21823;DHT22;11074;48.596;9.238;2023-07-13T12:24:43;27.10;98.10
21823;DHT22;11074;48.596;9.238;2023-07-13T12:27:26;27.30;97.60
21823;DHT22;11074;48.596;9.238;2023-07-13T12:30:05;27.50;97.90
21823;DHT22;11074;48.596;9.238;2023-07-13T12:33:17;27.40;97.60
21823;DHT22;11074;48.596;9.238;2023-07-13T12:35:47;27.40;97.40
21823;DHT22;11074;48.596;9.238;2023-07-13T12:38:16;27.30;97.00
21823;DHT22;11074;48.596;9.238;2023-07-13T12:40:42;26.90;97.20
21823;DHT22;11074;48.596;9.238;2023-07-13T12:43:12;26.50;97.20
21823;DHT22;11074;48.596;9.238;2023-07-13T12:45:58;26.60;97.70
21823;DHT22;11074;48.596;9.238;2023-07-13T12:48:29;27.10;97.70
21823;DHT22;11074;48.596;9.238;2023-07-13T12:50:56;27.20;96.60
21823;DHT22;11074;48.596;9.238;2023-07-13T12:53:30;27.30;96.40
21823;DHT22;11074;48.596;9.238;2023-07-13T12:56:02;27.40;95.90
21823;DHT22;11074;48.596;9.238;2023-07-13T12:58:39;27.70;96.20
21823;DHT22;11074;48.596;9.238;2023-07-13T13:01:10;27.70;97.20
21823;DHT22;11074;48.596;9.238;2023-07-13T13:08:54;27.60;97.40
21823;DHT22;11074;48.596;9.238;2023-07-13T13:11:22;27.50;96.30
21823;DHT22;11074;48.596;9.238;2023-07-13T13:13:50;27.50;96.00
21823;DHT22;11074;48.596;9.238;2023-07-13T13:18:55;27.40;96.10
21823;DHT22;11074;48.596;9.238;2023-07-13T13:21:25;27.00;96.20
21823;DHT22;11074;48.596;9.238;2023-07-13T13:23:51;27.10;96.60
21823;DHT22;11074;48.596;9.238;2023-07-13T13:26:19;27.50;96.90
21823;DHT22;11074;48.596;9.238;2023-07-13T13:28:47;27.80;97.10
21823;DHT22;11074;48.596;9.238;2023-07-13T13:31:13;27.90;97.80
21823;DHT22;11074;48.596;9.238;2023-07-13T13:33:42;27.90;98.30
21823;DHT22;11074;48.596;9.238;2023-07-13T13:36:22;28.10;98.20
21823;DHT22;11074;48.596;9.238;2023-07-13T13:38:49;28.10;98.70
21823;DHT22;11074;48.596;9.238;2023-07-13T13:41:16;28.10;97.20
21823;DHT22;11074;48.596;9.238;2023-07-13T13:43:46;28.40;96.30
21823;DHT22;11074;48.596;9.238;2023-07-13T13:46:24;28.60;96.80
21823;DHT22;11074;48.596;9.238;2023-07-13T13:48:55;28.40;96.80
21823;DHT22;11074;48.596;9.238;2023-07-13T13:51:23;28.10;96.80
21823;DHT22;11074;48.596;9.238;2023-07-13T13:53:50;28.30;96.70
21823;DHT22;11074;48.596;9.238;2023-07-13T13:56:18;28.60;96.00
21823;DHT22;11074;48.596;9.238;2023-07-13T13:58:44;28.40;95.60
21823;DHT22;11074;48.596;9.238;2023-07-13T14:01:18;28.10;95.40
21823;DHT22;11074;48.596;9.238;2023-07-13T14:03:46;27.90;94.30
21823;DHT22;11074;48.596;9.238;2023-07-13T14:06:15;28.00;95.30
21823;DHT22;11074;48.596;9.238;2023-07-13T14:08:41;28.30;97.00
21823;DHT22;11074;48.596;9.238;2023-07-13T14:11:15;28.60;93.90
21823;DHT22;11074;48.596;9.238;2023-07-13T14:13:47;28.90;95.00
21823;DHT22;11074;48.596;9.238;2023-07-13T14:16:19;29.10;95.30
21823;DHT22;11074;48.596;9.238;2023-07-13T14:18:47;29.30;92.20
21823;DHT22;11074;48.596;9.238;2023-07-13T14:21:19;29.00;91.20
21823;DHT22;11074;48.596;9.238;2023-07-13T14:23:47;28.80;91.40
21823;DHT22;11074;48.596;9.238;2023-07-13T14:26:22;28.90;92.40
21823;DHT22;11074;48.596;9.238;2023-07-13T14:28:52;29.00;92.30
21823;DHT22;11074;48.596;9.238;2023-07-13T14:31:21;29.10;92.20
21823;DHT22;11074;48.596;9.238;2023-07-13T14:33:48;28.80;92.90
21823;DHT22;11074;48.596;9.238;2023-07-13T14:36:31;28.30;92.40
21823;DHT22;11074;48.596;9.238;2023-07-13T14:39:12;28.20;92.20
21823;DHT22;11074;48.596;9.238;2023-07-13T14:41:40;28.20;92.00
21823;DHT22;11074;48.596;9.238;2023-07-13T14:44:17;28.20;92.10
21823;DHT22;11074;48.596;9.238;2023-07-13T14:46:46;28.10;92.50
21823;DHT22;11074;48.596;9.238;2023-07-13T14:49:34;28.20;92.00
21823;DHT22;11074;48.596;9.238;2023-07-13T14:52:17;28.30;91.60
21823;DHT22;11074;48.596;9.238;2023-07-13T14:54:45;28.20;91.80
21823;DHT22;11074;48.596;9.238;2023-07-13T14:57:13;28.00;91.60
21823;DHT22;11074;48.596;9.238;2023-07-13T14:59:40;27.80;91.20
21823;DHT22;11074;48.596;9.238;2023-07-13T15:02:33;27.60;92.00
21823;DHT22;11074;48.596;9.238;2023-07-13T15:05:01;27.40;92.50
21823;DHT22;11074;48.596;9.238;2023-07-13T15:07:27;27.50;93.70
21823;DHT22;11074;48.596;9.238;2023-07-13T15:09:52;27.50;93.70
21823;DHT22;11074;48.596;9.238;2023-07-13T15:12:19;27.50;94.60
21823;DHT22;11074;48.596;9.238;2023-07-13T15:14:45;27.60;94.30
21823;DHT22;11074;48.596;9.238;2023-07-13T15:17:36;28.00;92.70
21823;DHT22;11074;48.596;9.238;2023-07-13T15:20:19;28.20;93.10
21823;DHT22;11074;48.596;9.238;2023-07-13T15:22:51;28.10;93.70
21823;DHT22;11074;48.596;9.238;2023-07-13T15:25:21;28.00;93.90
21823;DHT22;11074;48.596;9.238;2023-07-13T15:27:50;28.20;93.70
21823;DHT22;11074;48.596;9.238;2023-07-13T15:30:16;28.30;94.20
21823;DHT22;11074;48.596;9.238;2023-07-13T15:32:43;28.30;94.30
21823;DHT22;11074;48.596;9.238;2023-07-13T15:35:21;28.10;94.00
21823;DHT22;11074;48.596;9.238;2023-07-13T15:37:50;28.00;94.20
21823;DHT22;11074;48.596;9.238;2023-07-13T15:40:17;27.90;93.60
21823;DHT22;11074;48.596;9.238;2023-07-13T15:42:45;27.80;93.90
21823;DHT22;11074;48.596;9.238;2023-07-13T15:45:20;27.70;94.50
21823;DHT22;11074;48.596;9.238;2023-07-13T15:47:48;27.50;95.00
21823;DHT22;11074;48.596;9.238;2023-07-13T15:50:23;27.30;94.80
21823;DHT22;11074;48.596;9.238;2023-07-13T15:52:55;27.40;95.00
21823;DHT22;11074;48.596;9.238;2023-07-13T15:55:23;27.70;94.90
21823;DHT22;11074;48.596;9.238;2023-07-13T15:57:51;27.90;95.20
21823;DHT22;11074;48.596;9.238;2023-07-13T16:00:23;28.00;95.00
21823;DHT22;11074;48.596;9.238;2023-07-13T16:02:51;28.20;95.20
21823;DHT22;11074;48.596;9.238;2023-07-13T16:05:18;28.10;94.30
21823;DHT22;11074;48.596;9.238;2023-07-13T16:07:48;27.80;94.40
21823;DHT22;11074;48.596;9.238;2023-07-13T16:10:29;27.60;94.50
21823;DHT22;11074;48.596;9.238;2023-07-13T16:12:58;27.70;95.00
21823;DHT22;11074;48.596;9.238;2023-07-13T16:15:25;27.80;95.20
21823;DHT22;11074;48.596;9.238;2023-07-13T16:17:50;28.00;95.20
21823;DHT22;11074;48.596;9.238;2023-07-13T16:20:17;27.90;94.90
21823;DHT22;11074;48.596;9.238;2023-07-13T16:22:48;27.90;95.10
21823;DHT22;11074;48.596;9.238;2023-07-13T16:25:20;28.10;95.00